Kennicott — WCY2920 — position and weather

sailwx.info

Track history (hours):
 
Tides and Currents Weather Stations Pressure Air Temp Water Temp Dewpoint Dewpoint Depression Visibility Wind Speed Wind Dir Waves Ship Positions

Kennicott

Owner: ALASKA, STATE OF, Anchorage, AK. More information available from US FCC via Universal Licensing System and Coast Guard Vessel Documentation Center.

Last reported at 2019-Jun-16 12:23 UTC. Time now 2019-Jun-16 15:12 UTC.
Position N 50°23' W 125°47'.

Type: Passenger vessel. MMSI: 368250000.

Date/timePositionNaut miles runAvg speedWind from/ knotsBaromVisibWave heightAir tempDewpointWater temp
2019-Jun-16 12:23N 50°23' W 125°47'916.9
2019-Jun-16 11:51N 50°22' W 125°33'515.1
2019-Jun-16 11:30N 50°19' W 125°25'815.8
2019-Jun-16 11:00N 50°12' W 125°22'612.7
2019-Jun-16 10:30N 50°06' W 125°18'613.0
2019-Jun-16 10:01N 50°00' W 125°13'714.4
2019-Jun-16 09:30N 49°55' W 125°05'816.2
2019-Jun-16 09:00N 49°49' W 124°56'815.8
2019-Jun-16 08:30N 49°44' W 124°48'815.5
2019-Jun-16 08:00N 49°38' W 124°39'815.4
2019-Jun-16 07:30N 49°33' W 124°31'815.6
2019-Jun-16 07:00N 49°28' W 124°22'815.6
2019-Jun-16 06:30N 49°24' W 124°11'815.9
2019-Jun-16 06:00N 49°22' W 123°59'815.8
2019-Jun-16 05:30N 49°19' W 123°48'815.3
2019-Jun-16 05:00N 49°15' W 123°38'815.5
2019-Jun-16 04:30N 49°09' W 123°30'815.7
2019-Jun-16 04:00N 49°04' W 123°21'816.0
2019-Jun-16 03:30N 48°59' W 123°12'816.1
2019-Jun-16 03:00N 48°53' W 123°03'917.0
2019-Jun-16 02:30N 48°48' W 122°53'815.9
2019-Jun-16 02:00N 48°43' W 122°44'815.1
2019-Jun-16 01:30N 48°38' W 122°35'611.5
2019-Jun-16 00:59N 48°43' W 122°31'0 0.1
2019-Jun-16 00:27N 48°43' W 122°31'0 0.0
2019-Jun-15 23:57N 48°43' W 122°31'0 0.0
2019-Jun-15 23:27N 48°43' W 122°31'0 0.0
2019-Jun-15 22:57N 48°43' W 122°31'0 0.0
2019-Jun-15 22:18N 48°43' W 122°31'0 0.0
2019-Jun-15 22:00N 48°43' W 122°31'0 0.0
2019-Jun-15 21:27N 48°43' W 122°31'0 0.0
2019-Jun-15 21:00N 48°43' W 122°31'0 0.0
2019-Jun-15 20:24N 48°43' W 122°31'0 0.0
2019-Jun-15 20:00N 48°43' W 122°31'0 0.0
2019-Jun-15 19:30N 48°43' W 122°31'0 0.0
2019-Jun-15 19:00N 48°43' W 122°31'0 0.0
2019-Jun-15 18:18N 48°43' W 122°31'0 0.0
2019-Jun-15 17:54N 48°43' W 122°31'0 0.0
2019-Jun-15 17:24N 48°43' W 122°31'0 0.0
2019-Jun-15 17:00N 48°43' W 122°31'0 0.0
2019-Jun-15 16:24N 48°43' W 122°31'0 0.0
2019-Jun-15 16:00N 48°43' W 122°31'0 0.0
2019-Jun-15 15:24N 48°43' W 122°31'0 0.0
2019-Jun-15 14:33N 48°43' W 122°31'0 0.5
2019-Jun-15 14:30N 48°43' W 122°31'4 8.2
2019-Jun-15 14:00N 48°40' W 122°33'5 9.4
2019-Jun-15 13:30N 48°39' W 122°40'713.2
2019-Jun-15 13:00N 48°44' W 122°46'713.2
2019-Jun-15 12:30N 48°48' W 122°55'816.3
2019-Jun-15 12:00N 48°52' W 123°05'714.8
2019-Jun-15 11:30N 48°57' W 123°13'815.2
2019-Jun-15 11:00N 49°02' W 123°22'815.1
2019-Jun-15 10:30N 49°08' W 123°30'815.3
2019-Jun-15 10:00N 49°14' W 123°37'815.6
2019-Jun-15 09:30N 49°19' W 123°45'714.7
2019-Jun-15 09:00N 49°22' W 123°56'815.4
2019-Jun-15 08:31N 49°24' W 124°08'814.9
2019-Jun-15 08:00N 49°26' W 124°19'715.1
2019-Jun-15 07:31N 49°31' W 124°27'815.1
2019-Jun-15 07:00N 49°36' W 124°36'815.9
2019-Jun-15 06:30N 49°41' W 124°45'815.7
2019-Jun-15 06:01N 49°46' W 124°54'815.4
2019-Jun-15 05:30N 49°52' W 125°02'815.2
2019-Jun-15 05:00N 49°58' W 125°10'611.3
2019-Jun-15 04:30N 50°03' W 125°14'510.3
2019-Jun-15 04:01N 50°07' W 125°19'612.3
2019-Jun-15 03:30N 50°13' W 125°23'714.2
2019-Jun-15 03:00N 50°19' W 125°25'712.5
2019-Jun-15 02:27N 50°22' W 125°35'613.9
2019-Jun-15 02:00N 50°22' W 125°45'5113.0
2019-Jun-14 22:04N 50°44' W 126°58'2516.2
2019-Jun-14 20:30N 50°58' W 127°31'815.2
2019-Jun-14 20:00N 51°04' W 127°40'816.0
2019-Jun-14 19:30N 51°09' W 127°49'816.2
2019-Jun-14 19:00N 51°16' W 127°52'816.4
2019-Jun-14 18:30N 51°25' W 127°51'816.6
2019-Jun-14 18:00N 51°33' W 127°52'816.6
2019-Jun-14 17:31N 51°41' W 127°55'816.4
2019-Jun-14 17:00N 51°49' W 127°56'816.1
2019-Jun-14 16:30N 51°57' W 127°56'812.4
2019-Jun-14 15:51N 52°04' W 128°02'513.4
2019-Jun-14 15:31N 52°07' W 128°08'4 7.9
2019-Jun-14 15:00N 52°11' W 128°06'814.2
2019-Jun-14 14:28N 52°15' W 128°17'715.9
2019-Jun-14 14:00N 52°15' W 128°29'815.7
2019-Jun-14 13:30N 52°13' W 128°42'612.1
2019-Jun-14 13:00N 52°18' W 128°48'815.9
2019-Jun-14 12:30N 52°26' W 128°51'816.4
2019-Jun-14 12:00N 52°34' W 128°53'816.0
2019-Jun-14 11:30N 52°41' W 129°00'1017.2
2019-Jun-14 10:56N 52°48' W 129°11'1616.6
2019-Jun-14 10:00N 52°60' W 129°28'3117.4
2019-Jun-14 08:14N 53°26' W 129°55'417.5
2019-Jun-14 08:00N 53°28' W 130°01'1117.1
2019-Jun-14 07:23N 53°35' W 130°15'616.1
2019-Jun-14 07:00N 53°38' W 130°24'816.1
2019-Jun-14 06:31N 53°43' W 130°34'816.0
2019-Jun-14 06:00N 53°49' W 130°44'815.8
2019-Jun-14 05:30N 53°54' W 130°54'815.3
2019-Jun-14 05:00N 54°01' W 130°59'816.4
2019-Jun-14 04:30N 54°09' W 131°01'917.3
2019-Jun-14 04:01N 54°17' W 131°02'816.9
2019-Jun-14 03:30N 54°26' W 131°04'815.3
2019-Jun-14 02:59N 54°34' W 131°01'715.5
2019-Jun-14 02:30N 54°41' W 131°01'815.8
2019-Jun-14 02:00N 54°49' W 131°04'247 7.8
2019-Jun-12 18:14N 58°13' W 135°18'416.4
2019-Jun-12 17:59N 58°14' W 135°26'816.0
2019-Jun-12 17:31N 58°17' W 135°39'816.1
2019-Jun-12 17:00N 58°19' W 135°54'816.5
2019-Jun-12 16:30N 58°19' W 136°10'1715.9
2019-Jun-12 15:25N 58°10' W 136°38'10314.5
2019-Jun-12 08:20N 59°11' W 139°18'514.5
2019-Jun-12 07:59N 59°14' W 139°25'7 6.8
2019-Jun-12 07:00N 59°18' W 139°36'8010.0 160 / 341019.4 2.2 11.111.1
2019-Jun-11 23:00N 59°30' W 142°12'231 7.5 090 / 301015.3 2.2 11.611.6 7.7
2019-Jun-10 16:00N 59°06' W 149°42'74 2.1 010 / 41020.527.0 12.711.8
2019-Jun-09 04:00N 59°00' W 152°06'   080 / 101023.910.8 10.010.0
2019-Jun-06 23:00N 59°42' W 148°36'   120 / 131017.3 0.0 11.611.6 7.7
Track history (hours):
 
Tides and Currents Weather Stations Pressure Air Temp Water Temp Dewpoint Dewpoint Depression Visibility Wind Speed Wind Dir Waves Ship Positions

Kennicott

Owner: ALASKA, STATE OF, Anchorage, AK. More information available from US FCC via Universal Licensing System and Coast Guard Vessel Documentation Center.

Last reported at 2019-Jun-16 12:23 UTC. Time now 2019-Jun-16 15:12 UTC.
Position N 50°23' W 125°47'.

Type: Passenger vessel. MMSI: 368250000.

Date/timePositionNaut miles runAvg speedWind from/ knotsBaromVisibWave heightAir tempDewpointWater temp
2019-Jun-16 12:23N 50°23' W 125°47'916.9
2019-Jun-16 11:51N 50°22' W 125°33'515.1
2019-Jun-16 11:30N 50°19' W 125°25'815.8
2019-Jun-16 11:00N 50°12' W 125°22'612.7
2019-Jun-16 10:30N 50°06' W 125°18'613.0
2019-Jun-16 10:01N 50°00' W 125°13'714.4
2019-Jun-16 09:30N 49°55' W 125°05'816.2
2019-Jun-16 09:00N 49°49' W 124°56'815.8
2019-Jun-16 08:30N 49°44' W 124°48'815.5
2019-Jun-16 08:00N 49°38' W 124°39'815.4
2019-Jun-16 07:30N 49°33' W 124°31'815.6
2019-Jun-16 07:00N 49°28' W 124°22'815.6
2019-Jun-16 06:30N 49°24' W 124°11'815.9
2019-Jun-16 06:00N 49°22' W 123°59'815.8
2019-Jun-16 05:30N 49°19' W 123°48'815.3
2019-Jun-16 05:00N 49°15' W 123°38'815.5
2019-Jun-16 04:30N 49°09' W 123°30'815.7
2019-Jun-16 04:00N 49°04' W 123°21'816.0
2019-Jun-16 03:30N 48°59' W 123°12'816.1
2019-Jun-16 03:00N 48°53' W 123°03'917.0
2019-Jun-16 02:30N 48°48' W 122°53'815.9
2019-Jun-16 02:00N 48°43' W 122°44'815.1
2019-Jun-16 01:30N 48°38' W 122°35'611.5
2019-Jun-16 00:59N 48°43' W 122°31'0 0.1
2019-Jun-16 00:27N 48°43' W 122°31'0 0.0
2019-Jun-15 23:57N 48°43' W 122°31'0 0.0
2019-Jun-15 23:27N 48°43' W 122°31'0 0.0
2019-Jun-15 22:57N 48°43' W 122°31'0 0.0
2019-Jun-15 22:18N 48°43' W 122°31'0 0.0
2019-Jun-15 22:00N 48°43' W 122°31'0 0.0
2019-Jun-15 21:27N 48°43' W 122°31'0 0.0
2019-Jun-15 21:00N 48°43' W 122°31'0 0.0
2019-Jun-15 20:24N 48°43' W 122°31'0 0.0
2019-Jun-15 20:00N 48°43' W 122°31'0 0.0
2019-Jun-15 19:30N 48°43' W 122°31'0 0.0
2019-Jun-15 19:00N 48°43' W 122°31'0 0.0
2019-Jun-15 18:18N 48°43' W 122°31'0 0.0
2019-Jun-15 17:54N 48°43' W 122°31'0 0.0
2019-Jun-15 17:24N 48°43' W 122°31'0 0.0
2019-Jun-15 17:00N 48°43' W 122°31'0 0.0
2019-Jun-15 16:24N 48°43' W 122°31'0 0.0
2019-Jun-15 16:00N 48°43' W 122°31'0 0.0
2019-Jun-15 15:24N 48°43' W 122°31'0 0.0
2019-Jun-15 14:33N 48°43' W 122°31'0 0.5
2019-Jun-15 14:30N 48°43' W 122°31'4 8.2
2019-Jun-15 14:00N 48°40' W 122°33'5 9.4
2019-Jun-15 13:30N 48°39' W 122°40'713.2
2019-Jun-15 13:00N 48°44' W 122°46'713.2
2019-Jun-15 12:30N 48°48' W 122°55'816.3
2019-Jun-15 12:00N 48°52' W 123°05'714.8
2019-Jun-15 11:30N 48°57' W 123°13'815.2
2019-Jun-15 11:00N 49°02' W 123°22'815.1
2019-Jun-15 10:30N 49°08' W 123°30'815.3
2019-Jun-15 10:00N 49°14' W 123°37'815.6
2019-Jun-15 09:30N 49°19' W 123°45'714.7
2019-Jun-15 09:00N 49°22' W 123°56'815.4
2019-Jun-15 08:31N 49°24' W 124°08'814.9
2019-Jun-15 08:00N 49°26' W 124°19'715.1
2019-Jun-15 07:31N 49°31' W 124°27'815.1
2019-Jun-15 07:00N 49°36' W 124°36'815.9
2019-Jun-15 06:30N 49°41' W 124°45'815.7
2019-Jun-15 06:01N 49°46' W 124°54'815.4
2019-Jun-15 05:30N 49°52' W 125°02'815.2
2019-Jun-15 05:00N 49°58' W 125°10'611.3
2019-Jun-15 04:30N 50°03' W 125°14'510.3
2019-Jun-15 04:01N 50°07' W 125°19'612.3
2019-Jun-15 03:30N 50°13' W 125°23'714.2
2019-Jun-15 03:00N 50°19' W 125°25'712.5
2019-Jun-15 02:27N 50°22' W 125°35'613.9
2019-Jun-15 02:00N 50°22' W 125°45'5113.0
2019-Jun-14 22:04N 50°44' W 126°58'2516.2
2019-Jun-14 20:30N 50°58' W 127°31'815.2
2019-Jun-14 20:00N 51°04' W 127°40'816.0
2019-Jun-14 19:30N 51°09' W 127°49'816.2
2019-Jun-14 19:00N 51°16' W 127°52'816.4
2019-Jun-14 18:30N 51°25' W 127°51'816.6
2019-Jun-14 18:00N 51°33' W 127°52'816.6
2019-Jun-14 17:31N 51°41' W 127°55'816.4
2019-Jun-14 17:00N 51°49' W 127°56'816.1
2019-Jun-14 16:30N 51°57' W 127°56'812.4
2019-Jun-14 15:51N 52°04' W 128°02'513.4
2019-Jun-14 15:31N 52°07' W 128°08'4 7.9
2019-Jun-14 15:00N 52°11' W 128°06'814.2
2019-Jun-14 14:28N 52°15' W 128°17'715.9
2019-Jun-14 14:00N 52°15' W 128°29'815.7
2019-Jun-14 13:30N 52°13' W 128°42'612.1
2019-Jun-14 13:00N 52°18' W 128°48'815.9
2019-Jun-14 12:30N 52°26' W 128°51'816.4
2019-Jun-14 12:00N 52°34' W 128°53'816.0
2019-Jun-14 11:30N 52°41' W 129°00'1017.2
2019-Jun-14 10:56N 52°48' W 129°11'1616.6
2019-Jun-14 10:00N 52°60' W 129°28'3117.4
2019-Jun-14 08:14N 53°26' W 129°55'417.5
2019-Jun-14 08:00N 53°28' W 130°01'1117.1
2019-Jun-14 07:23N 53°35' W 130°15'616.1
2019-Jun-14 07:00N 53°38' W 130°24'816.1
2019-Jun-14 06:31N 53°43' W 130°34'816.0
2019-Jun-14 06:00N 53°49' W 130°44'815.8
2019-Jun-14 05:30N 53°54' W 130°54'815.3
2019-Jun-14 05:00N 54°01' W 130°59'816.4
2019-Jun-14 04:30N 54°09' W 131°01'917.3
2019-Jun-14 04:01N 54°17' W 131°02'816.9
2019-Jun-14 03:30N 54°26' W 131°04'815.3
2019-Jun-14 02:59N 54°34' W 131°01'715.5
2019-Jun-14 02:30N 54°41' W 131°01'815.8
2019-Jun-14 02:00N 54°49' W 131°04'247 7.8
2019-Jun-12 18:14N 58°13' W 135°18'416.4
2019-Jun-12 17:59N 58°14' W 135°26'816.0
2019-Jun-12 17:31N 58°17' W 135°39'816.1
2019-Jun-12 17:00N 58°19' W 135°54'816.5
2019-Jun-12 16:30N 58°19' W 136°10'1715.9
2019-Jun-12 15:25N 58°10' W 136°38'10314.5
2019-Jun-12 08:20N 59°11' W 139°18'514.5
2019-Jun-12 07:59N 59°14' W 139°25'7 6.8
2019-Jun-12 07:00N 59°18' W 139°36'8010.0 160 / 341019.4 2.2 11.111.1
2019-Jun-11 23:00N 59°30' W 142°12'231 7.5 090 / 301015.3 2.2 11.611.6 7.7
2019-Jun-10 16:00N 59°06' W 149°42'74 2.1 010 / 41020.527.0 12.711.8
2019-Jun-09 04:00N 59°00' W 152°06'   080 / 101023.910.8 10.010.0
2019-Jun-06 23:00N 59°42' W 148°36'   120 / 131017.3 0.0 11.611.6 7.7

Dump ship's entire track history